| time (UTC) | temp F | wind direction | speed MPH | gust MPH | rain 1hr in | rain 24hr in | rain mn in | humidity % | barometer mb |
| 20260901041326 | 61 | 208 | 0.0 | 0.0 | 0.00 | 1.65 | 0.27 | 95 | 1017.8 |
| 20260901040337 | 61 | 218 | 0.0 | 0.0 | 0.00 | 1.65 | 0.27 | 95 | 1017.7 |
| 20260901035331 | 61 | 232 | 0.0 | 0.0 | 0.00 | 1.65 | 0.27 | 95 | 1017.6 |
| 20260901034321 | 61 | 232 | 0.0 | 2.0 | 0.00 | 1.65 | 0.27 | 95 | 1017.7 |
| 20260901033328 | 61 | 232 | 1.0 | 2.0 | 0.00 | 1.65 | 0.27 | 95 | 1017.6 |
| 20260901032323 | 61 | 231 | 0.0 | 0.0 | 0.00 | 1.65 | 0.27 | 95 | 1017.6 |
| 20260901031332 | 61 | 232 | 0.0 | 3.0 | 0.00 | 1.65 | 0.27 | 95 | 1017.6 |
| 20260901030330 | 61 | 232 | 1.0 | 3.0 | 0.00 | 1.65 | 0.27 | 95 | 1017.6 |
| 20260901025346 | 61 | 236 | 1.0 | 3.0 | 0.00 | 1.65 | 0.27 | 95 | 1017.6 |
| 20260901024344 | 61 | 234 | 2.0 | 3.0 | 0.00 | 1.65 | 0.27 | 94 | 1017.4 |
| 20260901023342 | 62 | 222 | 1.0 | 3.0 | 0.00 | 1.65 | 0.27 | 94 | 1017.4 |
| 20260901022320 | 62 | 223 | 2.0 | 3.0 | 0.04 | 1.65 | 0.27 | 94 | 1017.3 |
| 20260901021336 | 62 | 235 | 2.0 | 4.0 | 0.04 | 1.65 | 0.27 | 94 | 1017.4 |
| 20260901020319 | 62 | 232 | 2.0 | 4.0 | 0.04 | 1.65 | 0.27 | 94 | 1017.4 |
| 20260901015328 | 61 | 232 | 1.0 | 3.0 | 0.04 | 1.65 | 0.27 | 94 | 1017.4 |
| 20260901014338 | 61 | 232 | 0.0 | 2.0 | 0.04 | 1.65 | 0.27 | 94 | 1017.3 |
| 20260901013338 | 61 | 234 | 0.0 | 2.0 | 0.04 | 1.65 | 0.27 | 94 | 1017.2 |
| 20260901012335 | 61 | 233 | 1.0 | 3.0 | 0.00 | 1.61 | 0.26 | 94 | 1017.2 |
| 20260901011346 | 60 | 231 | 1.0 | 2.0 | 0.00 | 1.61 | 0.26 | 94 | 1017.1 |
| 20260901010342 | 60 | 231 | 1.0 | 2.0 | 0.00 | 1.61 | 0.26 | 94 | 1017.1 |
| 20260901005350 | 60 | 232 | 0.0 | 3.0 | 0.00 | 1.61 | 0.26 | 94 | 1017.2 |
| 20260901004344 | 60 | 231 | 2.0 | 5.0 | 0.00 | 1.61 | 0.26 | 94 | 1017.2 |
| 20260901003338 | 60 | 232 | 2.0 | 3.0 | 0.00 | 1.61 | 0.26 | 93 | 1017.1 |
| 20260901002329 | 60 | 232 | 1.0 | 3.0 | 0.00 | 1.61 | 0.26 | 93 | 1017.1 |
| 20260901001322 | 60 | 228 | 1.0 | 3.0 | 0.00 | 1.61 | 0.26 | 93 | 1017.1 |
| 20260901000336 | 60 | 228 | 0.0 | 1.0 | 0.00 | 1.61 | 0.26 | 93 | 1017.0 |
| 20260831235331 | 60 | 227 | 1.0 | 3.0 | 0.00 | 1.61 | 0.26 | 93 | 1017.0 |
| 20260831234322 | 60 | 226 | 1.0 | 3.0 | 0.00 | 1.61 | 0.26 | 92 | 1017.0 |
| 20260831233357 | 60 | 228 | 2.0 | 4.0 | 0.00 | 1.61 | 0.26 | 92 | 1017.0 |
| 20260831232324 | 60 | 227 | 3.0 | 4.0 | 0.00 | 1.61 | 0.26 | 92 | 1016.9 |
| 20260831231322 | 60 | 217 | 1.0 | 2.0 | 0.08 | 1.61 | 0.26 | 92 | 1016.9 |
| 20260831230407 | 60 | 217 | 1.0 | 3.0 | 0.98 | 1.61 | 0.26 | 92 | 1016.7 |
| 20260831225330 | 60 | 242 | 1.0 | 5.0 | 1.34 | 1.61 | 0.26 | 91 | 1016.9 |
| 20260831224350 | 61 | 234 | 3.0 | 7.0 | 1.34 | 1.61 | 0.26 | 91 | 1016.9 |
| 20260831223322 | 62 | 218 | 3.0 | 5.0 | 1.34 | 1.61 | 0.26 | 91 | 1016.8 |
| 20260831222338 | 63 | 273 | 0.0 | 6.0 | 1.34 | 1.61 | 0.26 | 91 | 1016.6 |
| 20260831221330 | 64 | 298 | 4.0 | 11.0 | 1.22 | 1.50 | 0.24 | 91 | 1016.9 |
| 20260831220347 | 65 | 208 | 8.0 | 11.0 | 0.28 | 0.55 | 0.05 | 91 | 1016.9 |
| 20260831215325 | 65 | 236 | 2.0 | 5.0 | 0.00 | 0.28 | 0.06 | 91 | 1016.3 |
| 20260831214340 | 65 | 258 | 2.0 | 5.0 | 0.00 | 0.28 | 0.06 | 90 | 1016.3 |
| 20260831213329 | 65 | 247 | 2.0 | 6.0 | 0.00 | 0.28 | 0.06 | 90 | 1016.3 |
| 20260831212329 | 65 | 203 | 1.0 | 6.0 | 0.00 | 0.28 | 0.06 | 90 | 1016.2 |
| 20260831211333 | 65 | 304 | 2.0 | 5.0 | 0.00 | 0.28 | 0.06 | 90 | 1016.2 |
| 20260831210330 | 66 | 221 | 2.0 | 8.0 | 0.00 | 0.28 | 0.06 | 89 | 1016.1 |
| 20260831205338 | 66 | 194 | 2.0 | 5.0 | 0.00 | 0.28 | 0.06 | 88 | 1015.9 |
| 20260831204355 | 66 | 302 | 2.0 | 9.0 | 0.00 | 0.28 | 0.06 | 88 | 1015.9 |
| 20260831203345 | 66 | 198 | 2.0 | 5.0 | 0.00 | 0.28 | 0.06 | 87 | 1015.8 |
| 20260831202330 | 66 | 221 | 2.0 | 6.0 | 0.00 | 0.28 | 0.06 | 87 | 1015.8 |
| 20260831201342 | 66 | 203 | 3.0 | 9.0 | 0.00 | 0.28 | 0.06 | 86 | 1015.7 |
| 20260831200332 | 66 | 252 | 3.0 | 11.0 | 0.00 | 0.28 | 0.06 | 86 | 1015.7 |
| 20260831195330 | 66 | 243 | 3.0 | 9.0 | 0.00 | 0.28 | 0.06 | 85 | 1015.6 |
| 20260831194336 | 66 | 272 | 4.0 | 7.0 | 0.00 | 0.28 | 0.06 | 84 | 1015.5 |
| 20260831193347 | 66 | 286 | 3.0 | 6.0 | 0.00 | 0.28 | 0.06 | 83 | 1015.4 |
| 20260831192357 | 66 | 279 | 4.0 | 9.0 | 0.00 | 0.28 | 0.06 | 82 | 1015.4 |
| 20260831191351 | 66 | 233 | 2.0 | 4.0 | 0.00 | 0.28 | 0.06 | 81 | 1015.2 |
| 20260831190345 | 66 | 277 | 2.0 | 6.0 | 0.00 | 0.28 | 0.06 | 80 | 1015.1 |
| 20260831185322 | 66 | 252 | 2.0 | 6.0 | 0.00 | 0.28 | 0.06 | 79 | 1015.0 |
| 20260831184333 | 66 | 248 | 2.0 | 6.0 | 0.00 | 0.28 | 0.06 | 78 | 1014.9 |
| 20260831183324 | 67 | 236 | 3.0 | 6.0 | 0.00 | 0.28 | 0.06 | 77 | 1014.8 |
| 20260831182332 | 67 | 238 | 2.0 | 6.0 | 0.00 | 0.28 | 0.06 | 76 | 1014.6 |
| 20260831181345 | 67 | 250 | 3.0 | 9.0 | 0.00 | 0.28 | 0.06 | 75 | 1014.4 |
| 20260831180336 | 67 | 266 | 4.0 | 10.0 | 0.00 | 0.28 | 0.06 | 75 | 1014.3 |
| 20260831175325 | 67 | 208 | 4.0 | 14.0 | 0.00 | 0.28 | 0.06 | 75 | 1014.2 |
| 20260831174336 | 68 | 208 | 4.0 | 13.0 | 0.00 | 0.28 | 0.06 | 75 | 1014.0 |
| 20260831173357 | 68 | 290 | 7.0 | 15.0 | 0.00 | 0.28 | 0.06 | 75 | 1014.0 |
| 20260831172323 | 68 | 249 | 4.0 | 11.0 | 0.00 | 0.28 | 0.06 | 76 | 1013.8 |
| 20260831171333 | 68 | 254 | 4.0 | 12.0 | 0.00 | 0.28 | 0.06 | 76 | 1013.7 |
| 20260831170321 | 68 | 286 | 6.0 | 17.0 | 0.00 | 0.28 | 0.06 | 77 | 1013.6 |
| 20260831165337 | 67 | 279 | 5.0 | 17.0 | 0.00 | 0.28 | 0.06 | 79 | 1013.4 |
| 20260831164329 | 67 | 296 | 7.0 | 16.0 | 0.00 | 0.28 | 0.06 | 81 | 1013.4 |
| 20260831163334 | 66 | 292 | 3.0 | 9.0 | 0.00 | 0.28 | 0.06 | 82 | 1013.3 |
| 20260831162345 | 66 | 286 | 4.0 | 11.0 | 0.00 | 0.28 | 0.06 | 81 | 1013.3 |
| 20260831161324 | 65 | 306 | 4.0 | 13.0 | 0.00 | 0.28 | 0.06 | 80 | 1013.2 |
| 20260831160323 | 66 | 197 | 4.0 | 19.0 | 0.00 | 0.28 | 0.06 | 78 | 1013.2 |
| 20260831155327 | 68 | 263 | 12.0 | 23.0 | 0.00 | 0.28 | 0.06 | 75 | 1013.2 |
| 20260831154335 | 69 | 290 | 12.0 | 22.0 | 0.00 | 0.28 | 0.06 | 71 | 1012.8 |
| 20260831153328 | 69 | 278 | 8.0 | 21.0 | 0.00 | 0.28 | 0.06 | 71 | 1012.7 |
| 20260831152328 | 69 | 264 | 10.0 | 26.0 | 0.00 | 0.28 | 0.06 | 70 | 1012.6 |
| 20260831151336 | 70 | 255 | 6.0 | 20.0 | 0.00 | 0.28 | 0.06 | 70 | 1012.5 |
| 20260831150326 | 71 | 306 | 7.0 | 15.0 | 0.00 | 0.28 | 0.06 | 71 | 1012.4 |
| 20260831145343 | 70 | 252 | 9.0 | 20.0 | 0.00 | 0.28 | 0.06 | 71 | 1012.4 |
| 20260831144329 | 69 | 282 | 6.0 | 20.0 | 0.00 | 0.28 | 0.06 | 71 | 1012.2 |
| 20260831143321 | 68 | 208 | 9.0 | 26.0 | 0.00 | 0.28 | 0.06 | 72 | 1012.1 |
| 20260831142339 | 69 | 208 | 10.0 | 20.0 | 0.00 | 0.28 | 0.06 | 71 | 1011.9 |
| 20260831141335 | 68 | 238 | 8.0 | 20.0 | 0.00 | 0.28 | 0.06 | 73 | 1011.6 |
| 20260831140328 | 68 | 296 | 9.0 | 24.0 | 0.00 | 0.28 | 0.06 | 72 | 1011.6 |
| 20260831135344 | 68 | 208 | 9.0 | 22.0 | 0.00 | 0.28 | 0.06 | 71 | 1011.5 |
| 20260831134324 | 68 | 264 | 6.0 | 17.0 | 0.00 | 0.28 | 0.06 | 74 | 1011.2 |
| 20260831133321 | 70 | 269 | 10.0 | 20.0 | 0.00 | 0.28 | 0.06 | 68 | 1011.1 |
| 20260831132335 | 70 | 309 | 6.0 | 19.0 | 0.00 | 0.28 | 0.06 | 68 | 1011.0 |
| 20260831131341 | 70 | 230 | 10.0 | 24.0 | 0.00 | 0.28 | 0.06 | 67 | 1010.9 |
| 20260831130342 | 70 | 309 | 12.0 | 22.0 | 0.00 | 0.28 | 0.06 | 67 | 1010.7 |
| 20260831125328 | 71 | 252 | 9.0 | 19.0 | 0.00 | 0.28 | 0.06 | 69 | 1010.6 |
| 20260831124321 | 71 | 194 | 9.0 | 20.0 | 0.00 | 0.28 | 0.06 | 67 | 1010.4 |
| 20260831123334 | 71 | 301 | 11.0 | 19.0 | 0.00 | 0.28 | 0.06 | 69 | 1010.3 |
| 20260831122339 | 70 | 243 | 9.0 | 18.0 | 0.00 | 0.28 | 0.06 | 70 | 1010.1 |
| 20260831121328 | 69 | 287 | 7.0 | 20.0 | 0.00 | 0.28 | 0.06 | 72 | 1010.0 |
| 20260831120324 | 69 | 217 | 10.0 | 20.0 | 0.04 | 0.28 | 0.06 | 73 | 1009.9 |
| 20260831115334 | 68 | 298 | 11.0 | 26.0 | 0.04 | 0.28 | 0.06 | 71 | 1009.9 |
| 20260831114348 | 68 | 208 | 9.0 | 21.0 | 0.04 | 0.28 | 0.06 | 69 | 1009.7 |
| 20260831113325 | 69 | 275 | 8.0 | 20.0 | 0.04 | 0.28 | 0.06 | 68 | 1009.6 |
| 20260831112349 | 69 | 271 | 10.0 | 22.0 | 0.04 | 0.28 | 0.06 | 68 | 1009.4 |
| 20260831111331 | 69 | 208 | 11.0 | 21.0 | 0.04 | 0.28 | 0.06 | 69 | 1009.2 |
| 20260831110357 | 68 | 318 | 9.0 | 22.0 | 0.00 | 0.24 | 0.05 | 71 | 1009.2 |
| 20260831105352 | 70 | 246 | 8.0 | 19.0 | 0.00 | 0.24 | 0.05 | 70 | 1009.0 |
| 20260831104325 | 69 | 240 | 12.0 | 19.0 | 0.00 | 0.24 | 0.05 | 71 | 1009.0 |
| 20260831103404 | 69 | 208 | 7.0 | 22.0 | 0.00 | 0.24 | 0.05 | 74 | 1009.0 |
| 20260831102337 | 68 | 203 | 7.0 | 17.0 | 0.00 | 0.24 | 0.05 | 74 | 1008.9 |
| 20260831101321 | 68 | 230 | 9.0 | 18.0 | 0.00 | 0.24 | 0.05 | 75 | 1008.8 |
| 20260831100334 | 68 | 262 | 10.0 | 17.0 | 0.00 | 0.24 | 0.05 | 75 | 1008.9 |
| 20260831095331 | 68 | 192 | 8.0 | 19.0 | 0.00 | 0.24 | 0.05 | 75 | 1008.7 |
| 20260831094340 | 68 | 238 | 10.0 | 15.0 | 0.00 | 0.24 | 0.05 | 76 | 1008.8 |
| 20260831093343 | 67 | 197 | 9.0 | 20.0 | 0.00 | 0.24 | 0.05 | 78 | 1008.7 |
| 20260831092351 | 66 | 220 | 10.0 | 21.0 | 0.00 | 0.24 | 0.05 | 79 | 1008.7 |
| 20260831091405 | 65 | 254 | 9.0 | 17.0 | 0.00 | 0.24 | 0.05 | 81 | 1008.7 |
| 20260831090340 | 65 | 233 | 6.0 | 16.0 | 0.00 | 0.24 | 0.05 | 82 | 1008.4 |
| 20260831085327 | 65 | 208 | 7.0 | 18.0 | 0.00 | 0.35 | 0.05 | 83 | 1008.4 |
| 20260831084323 | 65 | 188 | 9.0 | 15.0 | 0.00 | 0.35 | 0.05 | 84 | 1008.4 |
| 20260831083328 | 65 | 258 | 9.0 | 18.0 | 0.00 | 0.35 | 0.05 | 86 | 1008.3 |
| 20260831082329 | 64 | 246 | 9.0 | 18.0 | 0.00 | 0.35 | 0.05 | 87 | 1008.1 |
| 20260831081345 | 63 | 192 | 11.0 | 21.0 | 0.00 | 0.35 | 0.05 | 88 | 1008.0 |
| 20260831080343 | 63 | 219 | 8.0 | 16.0 | 0.00 | 0.35 | 0.05 | 89 | 1007.9 |
| 20260831075316 | 63 | 194 | 8.0 | 17.0 | 0.04 | 0.35 | 0.05 | 90 | 1007.9 |
| 20260831074326 | 63 | 231 | 8.0 | 16.0 | 0.04 | 0.35 | 0.05 | 91 | 1007.9 |
| 20260831073340 | 62 | 233 | 8.0 | 14.0 | 0.04 | 0.35 | 0.05 | 91 | 1007.9 |
| 20260831072356 | 62 | 157 | 5.0 | 15.0 | 0.04 | 0.35 | 0.05 | 91 | 1007.9 |
| 20260831071347 | 62 | 185 | 8.0 | 14.0 | 0.04 | 0.35 | 0.05 | 91 | 1008.0 |
| 20260831070343 | 62 | 230 | 7.0 | 15.0 | 0.08 | 0.35 | 0.05 | 91 | 1008.0 |
| 20260831065335 | 62 | 234 | 6.0 | 13.0 | 0.04 | 0.35 | 0.04 | 91 | 1008.1 |
| 20260831064345 | 62 | 208 | 3.0 | 10.0 | 0.04 | 0.35 | 0.04 | 91 | 1008.2 |
| 20260831063325 | 62 | 248 | 5.0 | 10.0 | 0.20 | 0.35 | 0.04 | 91 | 1008.3 |
| 20260831062338 | 62 | 250 | 4.0 | 11.0 | 0.20 | 0.35 | 0.04 | 91 | 1008.4 |
| 20260831061344 | 62 | 252 | 6.0 | 11.0 | 0.20 | 0.35 | 0.04 | 91 | 1008.5 |
| 20260831060320 | 62 | 175 | 4.0 | 11.0 | 0.16 | 0.31 | 0.03 | 90 | 1008.5 |
| 20260831055337 | 62 | 190 | 6.0 | 11.0 | 0.16 | 0.31 | 0.03 | 90 | 1008.1 |
| 20260831054321 | 63 | 254 | 6.0 | 12.0 | 0.16 | 0.31 | 0.03 | 90 | 1008.0 |
| 20260831053333 | 62 | 244 | 5.0 | 11.0 | 0.00 | 0.16 | 0.00 | 89 | 1008.0 |
| 20260831052322 | 62 | 208 | 5.0 | 9.0 | 0.00 | 0.16 | 0.00 | 90 | 1008.0 |
| 20260831051335 | 62 | 220 | 5.0 | 10.0 | 0.00 | 0.16 | 0.00 | 90 | 1008.0 |
| 20260831050332 | 62 | 213 | 4.0 | 10.0 | 0.00 | 0.16 | 0.00 | 90 | 1008.0 |
| 20260831045323 | 62 | 185 | 3.0 | 9.0 | 0.00 | 0.20 | 0.00 | 90 | 1008.1 |
| 20260831044354 | 62 | 229 | 3.0 | 7.0 | 0.00 | 0.20 | 0.00 | 89 | 1008.1 |
| 20260831043331 | 62 | 227 | 5.0 | 11.0 | 0.00 | 0.20 | 0.00 | 89 | 1008.2 |
| 20260831042323 | 62 | 173 | 4.0 | 10.0 | 0.00 | 0.20 | 0.00 | 89 | 1008.1 |